KFSI

Henry Post AAF (Fort Sill) Airport

Fort Sill, Oklahoma, USA
METAR KFSI 181956Z AUTO 16006KT 10SM OVC005 08/08 A3009 RMK AO2 SLP193 T00750075
Observed Flight Rules
Dec-18 @ 19:56 UTC (22 minutes ago) Instrument Flight Rules
Wind Visibility Clouds
160° at 6 knots 10 miles
  • Overcast at 500' AGL
Temperatures Readings
Current 8°C / 46°F
Dewpoint 8°C / 46°F
Humidity 100%
Altimeter 30.09" Hg
Pressure 1019.3 hPa
Elevation 362
METAR KFSI 181956Z AUTO 16006KT 10SM OVC005 08/08 A3009 RMK AO2 SLP193 T00750075
Observed Flight Rules
Dec-18 @ 19:56 UTC
(22 minutes ago)
IFR
Wind Visibility
160° at 6 knots 10 miles
Clouds
  • Overcast at 500' AGL
Temperature Dewpoint
8°C / 46°F 8°C / 46°F
Humidity Altimeter Pressure
100% 30.09" Hg 1019.3 hPa